createdAt,value
2024-04-06T13:03:06.213Z,29.50
2024-04-06T13:07:30.866Z,29.50
2024-04-06T13:10:01.522Z,29.90
2024-04-06T13:12:34.524Z,29.90
2024-04-06T13:15:06.319Z,30.00
2024-04-06T13:17:36.637Z,29.90
2024-04-06T13:20:11.094Z,29.80
2024-04-06T13:22:44.259Z,29.60
2024-04-06T13:25:13.302Z,29.50
2024-04-06T13:27:44.189Z,29.60
2024-04-06T13:30:12.647Z,29.80
2024-04-06T13:32:43.473Z,29.90
2024-04-06T13:35:10.847Z,29.90
2024-04-06T13:37:43.926Z,29.80
2024-04-06T13:40:12.316Z,29.90
2024-04-06T13:42:43.188Z,29.90
2024-04-06T13:45:13.746Z,30.10
2024-04-06T13:47:45.152Z,30.20
2024-04-06T13:50:13.307Z,30.30
2024-04-06T13:52:46.077Z,30.40
2024-04-06T13:55:13.527Z,30.40
2024-04-06T13:57:49.504Z,30.50
2024-04-06T14:00:17.503Z,30.30
2024-04-06T14:02:47.506Z,30.10
2024-04-06T14:05:15.541Z,30.30
2024-04-06T14:07:49.390Z,30.20
2024-04-06T14:10:17.064Z,30.00
2024-04-06T14:12:47.222Z,29.90
2024-04-06T14:15:14.704Z,30.00
2024-04-06T14:17:44.886Z,30.10
2024-04-06T14:20:12.344Z,30.40
2024-04-06T14:22:43.016Z,30.50
2024-04-06T14:25:15.996Z,30.60
2024-04-06T14:27:47.452Z,30.50
2024-04-06T14:30:26.310Z,30.50
2024-04-06T14:32:56.443Z,30.50
2024-04-06T14:35:24.516Z,30.50
2024-04-06T14:37:55.004Z,30.30
2024-04-06T14:40:25.062Z,30.40
2024-04-06T14:42:55.152Z,30.50
2024-04-06T14:45:22.618Z,30.60
2024-04-06T14:47:52.686Z,30.50
2024-04-06T14:50:20.199Z,30.80
2024-04-06T14:52:50.441Z,30.80
2024-04-06T14:55:19.076Z,30.90
2024-04-06T14:57:52.058Z,30.80
2024-04-06T15:00:19.630Z,30.70
2024-04-06T15:02:49.727Z,30.70
2024-04-06T15:05:17.288Z,30.60
2024-04-06T15:07:48.360Z,30.50
2024-04-06T15:10:15.792Z,30.30
2024-04-06T15:12:45.842Z,30.20
2024-04-06T15:15:16.160Z,29.90
2024-04-06T15:17:46.592Z,29.80
2024-04-06T15:20:14.344Z,29.80
2024-04-06T15:22:45.263Z,29.70
2024-04-06T15:25:17.228Z,29.80
2024-04-06T15:27:49.843Z,29.90
2024-04-06T15:30:21.288Z,29.90
2024-04-06T15:32:52.913Z,29.90
2024-04-06T15:35:20.961Z,29.90
2024-04-06T15:37:54.334Z,29.90
2024-04-06T15:40:22.416Z,29.80
2024-04-06T15:42:52.753Z,29.60
2024-04-06T15:45:25.497Z,29.20
2024-04-06T15:47:52.903Z,29.30
2024-04-06T15:50:22.918Z,29.30
2024-04-06T15:52:50.414Z,29.20
2024-04-06T15:55:20.730Z,29.20
2024-04-06T15:57:48.540Z,29.10
2024-04-06T16:00:19.099Z,29.10
2024-04-06T16:02:49.605Z,28.90
2024-04-06T16:05:19.796Z,28.60
2024-04-06T16:07:48.671Z,28.40
2024-04-06T16:10:18.931Z,28.30
2024-04-06T16:12:46.695Z,28.20
2024-04-06T16:15:17.011Z,28.20
2024-04-06T16:17:44.484Z,28.20
2024-04-06T16:20:17.438Z,28.30
2024-04-06T16:22:44.845Z,28.20
2024-04-06T16:25:16.851Z,28.10
2024-04-06T16:27:44.416Z,27.90
2024-04-06T16:30:17.558Z,27.60
2024-04-06T16:32:45.298Z,27.50
2024-04-06T16:35:18.328Z,27.60
2024-04-06T16:37:47.589Z,27.60
2024-04-06T16:40:17.952Z,27.60
2024-04-06T16:42:45.252Z,27.50
2024-04-06T16:45:15.422Z,27.40
2024-04-06T16:47:42.900Z,27.30
2024-04-06T16:50:13.386Z,27.20
2024-04-06T16:52:43.449Z,27.00
2024-04-06T16:55:14.707Z,26.90
2024-04-06T16:57:43.645Z,26.80
2024-04-06T17:00:15.256Z,26.80
2024-04-06T17:02:43.357Z,26.70
2024-04-06T17:05:14.782Z,26.50
2024-04-06T17:07:45.857Z,26.40
2024-04-06T17:10:16.551Z,26.30
2024-04-06T17:12:45.695Z,26.10
2024-04-06T17:15:15.782Z,25.90
2024-04-06T17:17:43.648Z,25.60
2024-04-06T17:20:14.515Z,25.60
2024-04-06T17:22:45.207Z,25.60
2024-04-06T17:25:15.490Z,25.50
2024-04-06T17:27:43.425Z,25.20
2024-04-06T17:30:15.326Z,25.00
2024-04-06T17:32:43.227Z,24.70
2024-04-06T17:35:15.032Z,24.60
2024-04-06T17:37:45.513Z,24.50
2024-04-06T17:40:15.936Z,24.40
2024-04-06T17:42:44.083Z,24.20
2024-04-06T17:45:14.541Z,24.10
2024-04-06T17:47:42.598Z,24.00
2024-04-06T17:50:13.143Z,23.90
2024-04-06T17:52:41.189Z,23.70
2024-04-06T17:55:16.023Z,23.50
2024-04-06T17:57:44.069Z,23.40
2024-04-06T18:00:16.374Z,23.40
2024-04-06T18:02:44.045Z,23.30
2024-04-06T18:05:14.358Z,23.10
2024-04-06T18:07:41.863Z,22.90
2024-04-06T18:10:14.500Z,22.80
2024-04-06T18:12:44.749Z,22.80
2024-04-06T18:15:12.486Z,22.70
2024-04-06T18:17:42.777Z,22.50
2024-04-06T18:20:10.401Z,22.40
2024-04-06T18:22:40.591Z,22.40
2024-04-06T18:25:10.405Z,22.40
2024-04-06T18:27:43.651Z,22.30
2024-04-06T18:30:11.657Z,22.20
2024-04-06T18:32:41.880Z,22.10
2024-04-06T18:35:10.047Z,21.90
2024-04-06T18:37:40.174Z,21.80
2024-04-06T18:40:07.907Z,21.80
2024-04-06T18:42:38.779Z,21.70
2024-04-06T18:45:11.554Z,21.60
2024-04-06T18:47:42.384Z,21.40
2024-04-06T18:50:09.815Z,21.40
2024-04-06T18:52:39.957Z,21.40
2024-04-06T18:55:07.748Z,21.40
2024-04-06T18:57:38.031Z,21.40
2024-04-06T19:00:09.707Z,21.40
2024-04-06T19:02:43.351Z,21.20
2024-04-06T19:05:11.311Z,21.10
2024-04-06T19:07:42.029Z,21.10
2024-04-06T19:10:09.484Z,21.00
2024-04-06T19:12:39.498Z,20.90
2024-04-06T19:15:11.883Z,20.90
2024-04-06T19:17:42.128Z,20.80
2024-04-06T19:20:10.670Z,20.60
2024-04-06T19:22:41.176Z,20.50
2024-04-06T19:25:09.103Z,20.40
2024-04-06T19:27:40.046Z,20.30
2024-04-06T19:30:11.228Z,20.20
2024-04-06T19:32:43.058Z,20.10
2024-04-06T19:35:10.698Z,19.90
2024-04-06T19:37:40.981Z,19.80
2024-04-06T19:40:09.463Z,19.70
2024-04-06T19:42:40.450Z,19.60
2024-04-06T19:45:13.533Z,19.50
2024-04-06T19:47:44.998Z,19.40
2024-04-06T19:50:13.127Z,19.30
2024-04-06T19:52:44.617Z,19.20
2024-04-06T19:55:16.106Z,19.20
2024-04-06T19:57:46.238Z,19.10
2024-04-06T20:00:17.749Z,19.10
2024-04-06T20:02:48.338Z,19.00
2024-04-06T20:05:16.201Z,19.00
2024-04-06T20:07:46.812Z,18.90
2024-04-06T20:10:14.528Z,18.90
2024-04-06T20:12:45.100Z,18.90
2024-04-06T20:15:12.630Z,18.80
2024-04-06T20:17:45.890Z,18.70
2024-04-06T20:20:13.586Z,18.60
2024-04-06T20:22:59.790Z,18.50
2024-04-06T20:25:45.946Z,18.50
2024-04-06T20:28:16.173Z,18.40
2024-04-06T20:30:46.170Z,18.30
2024-04-06T20:33:16.355Z,18.10
2024-04-06T20:35:48.026Z,18.00
2024-04-06T20:38:18.670Z,18.00
2024-04-06T20:40:46.301Z,17.80
2024-04-06T20:43:18.010Z,17.70
2024-04-06T20:45:46.182Z,17.60
2024-04-06T20:48:19.751Z,17.50
2024-04-06T20:50:47.762Z,17.50
2024-04-06T20:53:18.109Z,17.50
2024-04-06T20:55:46.163Z,17.40
2024-04-06T20:58:16.800Z,17.40
2024-04-06T21:00:45.036Z,17.30
2024-04-06T21:03:15.289Z,17.30
2024-04-06T21:05:45.733Z,17.30
2024-04-06T21:08:16.414Z,17.30
2024-04-06T21:10:43.902Z,17.20
2024-04-06T21:13:14.397Z,17.20
2024-04-06T21:15:42.528Z,17.10
2024-04-06T21:18:12.630Z,17.00
2024-04-06T21:20:40.248Z,17.00
2024-04-06T21:23:13.003Z,16.90
2024-04-06T21:25:40.512Z,16.90
2024-04-06T21:28:10.664Z,16.90
2024-04-06T21:30:38.282Z,16.80
2024-04-06T21:33:08.535Z,16.80
2024-04-06T21:35:35.911Z,16.70
2024-04-06T21:38:06.074Z,16.80
2024-04-06T21:40:36.078Z,16.70
2024-04-06T21:43:06.165Z,16.70
2024-04-06T21:45:33.526Z,16.70
2024-04-06T21:48:03.949Z,16.60
2024-04-06T21:50:32.529Z,16.50
2024-04-06T21:53:02.435Z,16.50
2024-04-06T21:55:29.903Z,16.40
2024-04-06T21:58:02.534Z,16.30
2024-04-06T22:00:37.324Z,16.20
2024-04-06T22:03:09.578Z,16.10
2024-04-06T22:05:36.925Z,16.00
2024-04-06T22:08:07.919Z,16.10
2024-04-06T22:10:35.737Z,16.00
2024-04-06T22:13:08.929Z,16.00
2024-04-06T22:15:36.915Z,16.10
2024-04-06T22:18:07.762Z,16.10
2024-04-06T22:20:35.988Z,16.00
2024-04-06T22:23:06.523Z,15.90
2024-04-06T22:25:33.889Z,15.80
2024-04-06T22:28:03.825Z,15.80
2024-04-06T22:30:34.179Z,15.80
2024-04-06T22:33:04.436Z,15.80
2024-04-06T22:35:31.903Z,15.70
2024-04-06T22:38:01.929Z,15.70
2024-04-06T22:40:29.569Z,15.50
2024-04-06T22:42:59.668Z,15.40
2024-04-06T22:45:27.049Z,15.40
2024-04-06T22:47:59.830Z,15.20
2024-04-06T22:50:27.428Z,15.30
2024-04-06T22:52:57.438Z,15.20
2024-04-06T22:55:25.448Z,15.10
2024-04-06T22:57:55.353Z,15.00
2024-04-06T23:00:22.949Z,15.00
2024-04-06T23:02:52.877Z,15.00
2024-04-06T23:05:23.114Z,15.10
2024-04-06T23:07:53.188Z,15.10
2024-04-06T23:10:20.666Z,15.10
2024-04-06T23:12:52.926Z,15.20
2024-04-06T23:15:20.480Z,15.20
2024-04-06T23:17:50.585Z,15.20
2024-04-06T23:20:18.207Z,15.20
2024-04-06T23:22:51.212Z,15.30
2024-04-06T23:25:18.754Z,15.30
2024-04-06T23:27:48.751Z,15.40
2024-04-06T23:30:16.285Z,15.30
2024-04-06T23:32:46.176Z,15.30
2024-04-06T23:35:13.543Z,15.30
2024-04-06T23:37:44.055Z,15.20
2024-04-06T23:40:14.629Z,15.10
2024-04-06T23:42:44.721Z,15.10
2024-04-06T23:45:12.207Z,15.10
2024-04-06T23:47:42.323Z,14.90
2024-04-06T23:50:10.043Z,14.80
2024-04-06T23:52:40.167Z,14.70
2024-04-06T23:55:08.089Z,14.60
2024-04-06T23:57:40.922Z,14.60
